sensor_id;sensor_type;location;lat;lon;timestamp;temperature;humidity
11035;DHT22;5571;48.110;-1.706;2023-08-06T00:02:13;15.10;99.90
11035;DHT22;5571;48.110;-1.706;2023-08-06T00:04:39;15.10;99.90
11035;DHT22;5571;48.110;-1.706;2023-08-06T00:07:04;15.00;99.90
11035;DHT22;5571;48.110;-1.706;2023-08-06T00:09:30;15.00;99.90
11035;DHT22;5571;48.110;-1.706;2023-08-06T00:11:55;15.00;99.90
11035;DHT22;5571;48.110;-1.706;2023-08-06T00:14:21;15.00;99.90
11035;DHT22;5571;48.110;-1.706;2023-08-06T00:16:47;15.00;99.90
11035;DHT22;5571;48.110;-1.706;2023-08-06T00:19:12;14.90;99.90
11035;DHT22;5571;48.110;-1.706;2023-08-06T00:21:38;14.90;99.90
11035;DHT22;5571;48.110;-1.706;2023-08-06T00:24:04;14.90;99.90
11035;DHT22;5571;48.110;-1.706;2023-08-06T00:26:29;14.90;99.90
11035;DHT22;5571;48.110;-1.706;2023-08-06T00:28:55;14.80;99.90
11035;DHT22;5571;48.110;-1.706;2023-08-06T00:31:21;14.90;99.90
11035;DHT22;5571;48.110;-1.706;2023-08-06T00:33:46;15.00;99.90
11035;DHT22;5571;48.110;-1.706;2023-08-06T00:36:12;15.00;99.90
11035;DHT22;5571;48.110;-1.706;2023-08-06T00:38:37;15.00;99.90
11035;DHT22;5571;48.110;-1.706;2023-08-06T00:41:03;15.00;99.90
11035;DHT22;5571;48.110;-1.706;2023-08-06T00:43:29;15.00;99.90
11035;DHT22;5571;48.110;-1.706;2023-08-06T00:45:55;14.90;99.90
11035;DHT22;5571;48.110;-1.706;2023-08-06T00:48:20;14.90;99.90
11035;DHT22;5571;48.110;-1.706;2023-08-06T00:50:47;14.90;99.90
11035;DHT22;5571;48.110;-1.706;2023-08-06T00:53:13;14.90;99.90
11035;DHT22;5571;48.110;-1.706;2023-08-06T00:55:39;14.80;99.90
11035;DHT22;5571;48.110;-1.706;2023-08-06T00:58:04;14.80;99.90
11035;DHT22;5571;48.110;-1.706;2023-08-06T01:00:30;14.80;99.90
11035;DHT22;5571;48.110;-1.706;2023-08-06T01:02:56;14.80;99.90
11035;DHT22;5571;48.110;-1.706;2023-08-06T01:05:22;14.80;99.90
11035;DHT22;5571;48.110;-1.706;2023-08-06T01:13:43;14.90;99.90
11035;DHT22;5571;48.110;-1.706;2023-08-06T01:16:15;14.80;99.90
11035;DHT22;5571;48.110;-1.706;2023-08-06T01:18:41;14.70;99.90
11035;DHT22;5571;48.110;-1.706;2023-08-06T01:21:08;14.70;99.90
11035;DHT22;5571;48.110;-1.706;2023-08-06T01:23:34;14.70;99.90
11035;DHT22;5571;48.110;-1.706;2023-08-06T01:26:14;14.70;99.90
11035;DHT22;5571;48.110;-1.706;2023-08-06T01:31:48;14.60;99.90
11035;DHT22;5571;48.110;-1.706;2023-08-06T01:34:17;14.50;99.90
11035;DHT22;5571;48.110;-1.706;2023-08-06T01:36:46;14.50;99.90
11035;DHT22;5571;48.110;-1.706;2023-08-06T01:39:11;14.50;99.90
11035;DHT22;5571;48.110;-1.706;2023-08-06T01:41:37;14.50;99.90
11035;DHT22;5571;48.110;-1.706;2023-08-06T01:44:03;14.50;99.90
11035;DHT22;5571;48.110;-1.706;2023-08-06T01:46:28;14.50;99.90
11035;DHT22;5571;48.110;-1.706;2023-08-06T01:48:54;14.40;99.90
11035;DHT22;5571;48.110;-1.706;2023-08-06T01:51:19;14.50;99.90
11035;DHT22;5571;48.110;-1.706;2023-08-06T01:53:45;14.40;99.90
11035;DHT22;5571;48.110;-1.706;2023-08-06T01:56:11;14.40;99.90
11035;DHT22;5571;48.110;-1.706;2023-08-06T01:58:36;14.40;99.90
11035;DHT22;5571;48.110;-1.706;2023-08-06T02:01:02;14.40;99.90
11035;DHT22;5571;48.110;-1.706;2023-08-06T02:03:28;14.30;99.90
11035;DHT22;5571;48.110;-1.706;2023-08-06T02:05:53;14.40;99.90
11035;DHT22;5571;48.110;-1.706;2023-08-06T02:08:19;14.30;99.90
11035;DHT22;5571;48.110;-1.706;2023-08-06T02:10:45;14.30;99.90
11035;DHT22;5571;48.110;-1.706;2023-08-06T02:13:11;14.30;99.90
11035;DHT22;5571;48.110;-1.706;2023-08-06T02:15:42;14.30;99.90
11035;DHT22;5571;48.110;-1.706;2023-08-06T02:18:08;14.20;99.90
11035;DHT22;5571;48.110;-1.706;2023-08-06T02:20:34;14.20;99.90
11035;DHT22;5571;48.110;-1.706;2023-08-06T02:23:00;14.20;99.90
11035;DHT22;5571;48.110;-1.706;2023-08-06T02:25:25;14.10;99.90
11035;DHT22;5571;48.110;-1.706;2023-08-06T02:27:51;14.10;99.90
11035;DHT22;5571;48.110;-1.706;2023-08-06T02:30:16;14.00;99.90
11035;DHT22;5571;48.110;-1.706;2023-08-06T02:32:42;14.00;99.90
11035;DHT22;5571;48.110;-1.706;2023-08-06T02:35:07;14.00;99.90
11035;DHT22;5571;48.110;-1.706;2023-08-06T02:37:34;14.00;99.90
11035;DHT22;5571;48.110;-1.706;2023-08-06T02:39:59;13.90;99.90
11035;DHT22;5571;48.110;-1.706;2023-08-06T02:42:25;13.80;99.90
11035;DHT22;5571;48.110;-1.706;2023-08-06T02:44:52;13.80;99.90
11035;DHT22;5571;48.110;-1.706;2023-08-06T02:47:20;13.80;99.90
11035;DHT22;5571;48.110;-1.706;2023-08-06T02:49:46;13.80;99.90
11035;DHT22;5571;48.110;-1.706;2023-08-06T02:52:12;13.70;99.90
11035;DHT22;5571;48.110;-1.706;2023-08-06T02:54:37;13.70;99.90
11035;DHT22;5571;48.110;-1.706;2023-08-06T02:57:03;13.80;99.90
11035;DHT22;5571;48.110;-1.706;2023-08-06T02:59:29;13.80;99.90
11035;DHT22;5571;48.110;-1.706;2023-08-06T03:01:54;13.80;99.90
11035;DHT22;5571;48.110;-1.706;2023-08-06T03:04:20;13.90;99.90
11035;DHT22;5571;48.110;-1.706;2023-08-06T03:06:45;13.80;99.90
11035;DHT22;5571;48.110;-1.706;2023-08-06T03:09:11;13.80;99.90
11035;DHT22;5571;48.110;-1.706;2023-08-06T03:11:36;13.90;99.90
11035;DHT22;5571;48.110;-1.706;2023-08-06T03:14:02;13.90;99.90
11035;DHT22;5571;48.110;-1.706;2023-08-06T03:16:28;13.90;99.90
11035;DHT22;5571;48.110;-1.706;2023-08-06T03:18:53;13.80;99.90
11035;DHT22;5571;48.110;-1.706;2023-08-06T03:21:19;13.90;99.90
11035;DHT22;5571;48.110;-1.706;2023-08-06T03:23:47;13.90;99.90
11035;DHT22;5571;48.110;-1.706;2023-08-06T03:26:14;13.80;99.90
11035;DHT22;5571;48.110;-1.706;2023-08-06T03:28:39;13.70;99.90
11035;DHT22;5571;48.110;-1.706;2023-08-06T03:31:05;13.70;99.90
11035;DHT22;5571;48.110;-1.706;2023-08-06T03:33:30;13.80;99.90
11035;DHT22;5571;48.110;-1.706;2023-08-06T03:35:56;13.80;99.90
11035;DHT22;5571;48.110;-1.706;2023-08-06T03:38:22;13.80;99.90
11035;DHT22;5571;48.110;-1.706;2023-08-06T03:40:48;13.80;99.90
11035;DHT22;5571;48.110;-1.706;2023-08-06T03:43:14;13.80;99.90
11035;DHT22;5571;48.110;-1.706;2023-08-06T03:45:41;13.80;99.90
11035;DHT22;5571;48.110;-1.706;2023-08-06T03:48:07;13.70;99.90
11035;DHT22;5571;48.110;-1.706;2023-08-06T03:50:32;13.70;99.90
11035;DHT22;5571;48.110;-1.706;2023-08-06T03:52:58;13.60;99.90
11035;DHT22;5571;48.110;-1.706;2023-08-06T03:55:24;13.70;99.90
11035;DHT22;5571;48.110;-1.706;2023-08-06T03:57:49;13.70;99.90
11035;DHT22;5571;48.110;-1.706;2023-08-06T04:00:15;13.70;99.90
11035;DHT22;5571;48.110;-1.706;2023-08-06T04:02:41;13.60;99.90
11035;DHT22;5571;48.110;-1.706;2023-08-06T04:05:07;13.60;99.90
11035;DHT22;5571;48.110;-1.706;2023-08-06T04:07:32;13.60;99.90
11035;DHT22;5571;48.110;-1.706;2023-08-06T04:10:00;13.60;99.90
11035;DHT22;5571;48.110;-1.706;2023-08-06T04:12:27;13.50;99.90
11035;DHT22;5571;48.110;-1.706;2023-08-06T04:14:53;13.60;99.90
11035;DHT22;5571;48.110;-1.706;2023-08-06T04:17:19;13.50;99.90
11035;DHT22;5571;48.110;-1.706;2023-08-06T04:19:50;13.50;99.90
11035;DHT22;5571;48.110;-1.706;2023-08-06T04:22:16;13.40;99.90
11035;DHT22;5571;48.110;-1.706;2023-08-06T04:24:42;13.40;99.90
11035;DHT22;5571;48.110;-1.706;2023-08-06T04:27:09;13.40;99.90
11035;DHT22;5571;48.110;-1.706;2023-08-06T04:29:35;13.30;99.90
11035;DHT22;5571;48.110;-1.706;2023-08-06T04:32:00;13.40;99.90
11035;DHT22;5571;48.110;-1.706;2023-08-06T04:34:26;13.40;99.90
11035;DHT22;5571;48.110;-1.706;2023-08-06T04:36:52;13.40;99.90
11035;DHT22;5571;48.110;-1.706;2023-08-06T04:39:17;13.40;99.90
11035;DHT22;5571;48.110;-1.706;2023-08-06T04:41:43;13.40;99.90
11035;DHT22;5571;48.110;-1.706;2023-08-06T04:44:08;13.40;99.90
11035;DHT22;5571;48.110;-1.706;2023-08-06T04:46:34;13.40;99.90
11035;DHT22;5571;48.110;-1.706;2023-08-06T04:49:00;13.30;99.90
11035;DHT22;5571;48.110;-1.706;2023-08-06T04:51:25;13.20;99.90
11035;DHT22;5571;48.110;-1.706;2023-08-06T04:53:51;13.20;99.90
11035;DHT22;5571;48.110;-1.706;2023-08-06T04:56:17;13.30;99.90
11035;DHT22;5571;48.110;-1.706;2023-08-06T04:58:43;13.30;99.90
11035;DHT22;5571;48.110;-1.706;2023-08-06T05:01:09;13.30;99.90
11035;DHT22;5571;48.110;-1.706;2023-08-06T05:03:34;13.30;99.90
11035;DHT22;5571;48.110;-1.706;2023-08-06T05:06:00;13.30;99.90
11035;DHT22;5571;48.110;-1.706;2023-08-06T05:08:25;13.30;99.90
11035;DHT22;5571;48.110;-1.706;2023-08-06T05:10:51;13.40;99.90
11035;DHT22;5571;48.110;-1.706;2023-08-06T05:13:16;13.40;99.90
11035;DHT22;5571;48.110;-1.706;2023-08-06T05:15:42;13.40;99.90
11035;DHT22;5571;48.110;-1.706;2023-08-06T05:18:08;13.50;99.90
11035;DHT22;5571;48.110;-1.706;2023-08-06T05:20:41;13.50;99.90
11035;DHT22;5571;48.110;-1.706;2023-08-06T05:23:07;13.50;99.90
11035;DHT22;5571;48.110;-1.706;2023-08-06T05:25:36;13.50;99.90
11035;DHT22;5571;48.110;-1.706;2023-08-06T05:28:02;13.50;99.90
11035;DHT22;5571;48.110;-1.706;2023-08-06T05:30:28;13.50;99.90
11035;DHT22;5571;48.110;-1.706;2023-08-06T05:32:54;13.50;99.90
11035;DHT22;5571;48.110;-1.706;2023-08-06T05:35:21;13.40;99.90
11035;DHT22;5571;48.110;-1.706;2023-08-06T05:37:47;13.40;99.90
11035;DHT22;5571;48.110;-1.706;2023-08-06T05:40:13;13.50;99.90
11035;DHT22;5571;48.110;-1.706;2023-08-06T05:42:39;13.50;99.90
11035;DHT22;5571;48.110;-1.706;2023-08-06T05:45:05;13.50;99.90
11035;DHT22;5571;48.110;-1.706;2023-08-06T05:47:30;13.50;99.90
11035;DHT22;5571;48.110;-1.706;2023-08-06T05:49:56;13.60;99.90
11035;DHT22;5571;48.110;-1.706;2023-08-06T05:52:22;13.60;99.90
11035;DHT22;5571;48.110;-1.706;2023-08-06T05:54:47;13.60;99.90
11035;DHT22;5571;48.110;-1.706;2023-08-06T05:57:13;13.60;99.90
11035;DHT22;5571;48.110;-1.706;2023-08-06T05:59:40;13.60;99.90
11035;DHT22;5571;48.110;-1.706;2023-08-06T06:02:06;13.70;99.90
11035;DHT22;5571;48.110;-1.706;2023-08-06T06:04:31;13.70;99.90
11035;DHT22;5571;48.110;-1.706;2023-08-06T06:06:57;13.80;99.90
11035;DHT22;5571;48.110;-1.706;2023-08-06T06:09:23;13.80;99.90
11035;DHT22;5571;48.110;-1.706;2023-08-06T06:11:48;13.90;99.90
11035;DHT22;5571;48.110;-1.706;2023-08-06T06:14:18;14.00;99.90
11035;DHT22;5571;48.110;-1.706;2023-08-06T06:16:44;14.00;99.90
11035;DHT22;5571;48.110;-1.706;2023-08-06T06:19:11;14.10;99.90
11035;DHT22;5571;48.110;-1.706;2023-08-06T06:21:36;14.10;99.90
11035;DHT22;5571;48.110;-1.706;2023-08-06T06:24:03;14.20;99.90
11035;DHT22;5571;48.110;-1.706;2023-08-06T06:26:30;14.20;99.90
11035;DHT22;5571;48.110;-1.706;2023-08-06T06:28:55;14.30;99.90
11035;DHT22;5571;48.110;-1.706;2023-08-06T06:31:21;14.40;99.90
11035;DHT22;5571;48.110;-1.706;2023-08-06T06:33:47;14.40;99.90
11035;DHT22;5571;48.110;-1.706;2023-08-06T06:36:12;14.50;99.90
11035;DHT22;5571;48.110;-1.706;2023-08-06T06:38:38;14.50;99.90
11035;DHT22;5571;48.110;-1.706;2023-08-06T06:41:04;14.60;99.90
11035;DHT22;5571;48.110;-1.706;2023-08-06T06:43:29;14.60;99.90
11035;DHT22;5571;48.110;-1.706;2023-08-06T06:45:59;14.60;99.90
11035;DHT22;5571;48.110;-1.706;2023-08-06T06:48:26;14.60;99.90
11035;DHT22;5571;48.110;-1.706;2023-08-06T06:50:52;14.60;99.90
11035;DHT22;5571;48.110;-1.706;2023-08-06T06:53:18;14.60;99.90
11035;DHT22;5571;48.110;-1.706;2023-08-06T06:55:43;14.70;99.90
11035;DHT22;5571;48.110;-1.706;2023-08-06T06:58:09;14.70;99.90
11035;DHT22;5571;48.110;-1.706;2023-08-06T07:00:38;14.70;99.90
11035;DHT22;5571;48.110;-1.706;2023-08-06T07:03:04;14.80;99.90
11035;DHT22;5571;48.110;-1.706;2023-08-06T07:05:29;14.90;99.90
11035;DHT22;5571;48.110;-1.706;2023-08-06T07:07:55;15.00;99.90
11035;DHT22;5571;48.110;-1.706;2023-08-06T07:10:21;15.10;99.90
11035;DHT22;5571;48.110;-1.706;2023-08-06T07:12:46;15.20;99.90
11035;DHT22;5571;48.110;-1.706;2023-08-06T07:15:12;15.30;99.90
11035;DHT22;5571;48.110;-1.706;2023-08-06T07:17:37;15.30;99.90
11035;DHT22;5571;48.110;-1.706;2023-08-06T07:20:03;15.40;99.90
11035;DHT22;5571;48.110;-1.706;2023-08-06T07:22:29;15.50;99.90
11035;DHT22;5571;48.110;-1.706;2023-08-06T07:24:55;15.60;99.90
11035;DHT22;5571;48.110;-1.706;2023-08-06T07:27:21;15.70;99.90
11035;DHT22;5571;48.110;-1.706;2023-08-06T07:29:46;15.90;99.90
11035;DHT22;5571;48.110;-1.706;2023-08-06T07:32:13;16.00;99.90
11035;DHT22;5571;48.110;-1.706;2023-08-06T07:34:39;16.10;99.90
11035;DHT22;5571;48.110;-1.706;2023-08-06T07:37:04;16.20;99.90
11035;DHT22;5571;48.110;-1.706;2023-08-06T07:39:31;16.20;99.90
11035;DHT22;5571;48.110;-1.706;2023-08-06T07:41:56;16.30;99.90
11035;DHT22;5571;48.110;-1.706;2023-08-06T07:44:22;16.40;99.90
11035;DHT22;5571;48.110;-1.706;2023-08-06T07:46:49;16.50;99.90
11035;DHT22;5571;48.110;-1.706;2023-08-06T07:49:14;16.40;99.90
11035;DHT22;5571;48.110;-1.706;2023-08-06T07:51:40;16.40;99.90
11035;DHT22;5571;48.110;-1.706;2023-08-06T07:54:06;16.40;99.90
11035;DHT22;5571;48.110;-1.706;2023-08-06T07:56:32;16.50;99.90
11035;DHT22;5571;48.110;-1.706;2023-08-06T07:58:58;16.50;99.90
11035;DHT22;5571;48.110;-1.706;2023-08-06T08:01:24;16.50;99.90
11035;DHT22;5571;48.110;-1.706;2023-08-06T08:03:49;16.50;99.90
11035;DHT22;5571;48.110;-1.706;2023-08-06T08:06:15;16.40;99.90
11035;DHT22;5571;48.110;-1.706;2023-08-06T08:08:40;16.50;99.90
11035;DHT22;5571;48.110;-1.706;2023-08-06T08:11:06;16.50;99.90
11035;DHT22;5571;48.110;-1.706;2023-08-06T08:13:32;16.50;99.90
11035;DHT22;5571;48.110;-1.706;2023-08-06T08:15:58;16.60;99.90
11035;DHT22;5571;48.110;-1.706;2023-08-06T08:18:24;16.60;99.90
11035;DHT22;5571;48.110;-1.706;2023-08-06T08:20:50;16.60;99.90
11035;DHT22;5571;48.110;-1.706;2023-08-06T08:23:16;16.70;99.90
11035;DHT22;5571;48.110;-1.706;2023-08-06T08:25:41;16.90;99.90
11035;DHT22;5571;48.110;-1.706;2023-08-06T08:28:07;16.90;99.90
11035;DHT22;5571;48.110;-1.706;2023-08-06T08:30:33;17.00;99.90
11035;DHT22;5571;48.110;-1.706;2023-08-06T08:32:58;17.10;99.90
11035;DHT22;5571;48.110;-1.706;2023-08-06T08:35:24;17.20;99.90
11035;DHT22;5571;48.110;-1.706;2023-08-06T08:37:50;17.40;99.90
11035;DHT22;5571;48.110;-1.706;2023-08-06T08:40:16;17.50;99.90
11035;DHT22;5571;48.110;-1.706;2023-08-06T08:42:42;17.70;99.90
11035;DHT22;5571;48.110;-1.706;2023-08-06T08:45:15;17.80;99.90
11035;DHT22;5571;48.110;-1.706;2023-08-06T08:47:41;18.00;99.90
11035;DHT22;5571;48.110;-1.706;2023-08-06T08:50:08;18.00;99.90
11035;DHT22;5571;48.110;-1.706;2023-08-06T08:52:36;18.10;99.90
11035;DHT22;5571;48.110;-1.706;2023-08-06T08:55:03;18.20;99.90
11035;DHT22;5571;48.110;-1.706;2023-08-06T08:57:29;18.40;99.90
11035;DHT22;5571;48.110;-1.706;2023-08-06T08:59:55;18.50;99.90
11035;DHT22;5571;48.110;-1.706;2023-08-06T09:02:21;18.50;99.90
11035;DHT22;5571;48.110;-1.706;2023-08-06T09:04:48;18.60;99.90
11035;DHT22;5571;48.110;-1.706;2023-08-06T09:07:18;18.80;99.90
11035;DHT22;5571;48.110;-1.706;2023-08-06T09:09:48;19.00;99.90
11035;DHT22;5571;48.110;-1.706;2023-08-06T09:12:15;19.10;99.90
11035;DHT22;5571;48.110;-1.706;2023-08-06T09:14:41;19.30;99.90
11035;DHT22;5571;48.110;-1.706;2023-08-06T09:17:07;19.20;99.90
11035;DHT22;5571;48.110;-1.706;2023-08-06T09:19:34;19.20;99.90
11035;DHT22;5571;48.110;-1.706;2023-08-06T09:22:00;19.20;99.90
11035;DHT22;5571;48.110;-1.706;2023-08-06T09:24:25;19.30;99.90
11035;DHT22;5571;48.110;-1.706;2023-08-06T09:26:54;19.10;99.90
11035;DHT22;5571;48.110;-1.706;2023-08-06T09:29:20;19.00;99.90
11035;DHT22;5571;48.110;-1.706;2023-08-06T09:31:50;18.80;99.90
11035;DHT22;5571;48.110;-1.706;2023-08-06T09:34:21;18.70;99.90
11035;DHT22;5571;48.110;-1.706;2023-08-06T09:36:54;18.80;99.90
11035;DHT22;5571;48.110;-1.706;2023-08-06T09:39:26;19.00;99.90
11035;DHT22;5571;48.110;-1.706;2023-08-06T09:41:56;19.20;99.90
11035;DHT22;5571;48.110;-1.706;2023-08-06T09:44:22;19.50;99.90
11035;DHT22;5571;48.110;-1.706;2023-08-06T09:46:59;19.50;99.90
11035;DHT22;5571;48.110;-1.706;2023-08-06T09:49:28;19.40;99.90
11035;DHT22;5571;48.110;-1.706;2023-08-06T09:52:10;19.20;99.90
11035;DHT22;5571;48.110;-1.706;2023-08-06T09:54:37;19.10;99.90
11035;DHT22;5571;48.110;-1.706;2023-08-06T09:57:03;18.90;99.90
11035;DHT22;5571;48.110;-1.706;2023-08-06T09:59:31;18.90;99.90
11035;DHT22;5571;48.110;-1.706;2023-08-06T10:01:58;18.90;99.90
11035;DHT22;5571;48.110;-1.706;2023-08-06T10:04:24;18.90;99.90
11035;DHT22;5571;48.110;-1.706;2023-08-06T10:06:50;18.80;99.90
11035;DHT22;5571;48.110;-1.706;2023-08-06T10:09:16;18.90;99.90
11035;DHT22;5571;48.110;-1.706;2023-08-06T10:11:51;19.00;99.90
11035;DHT22;5571;48.110;-1.706;2023-08-06T10:14:29;19.20;99.90
11035;DHT22;5571;48.110;-1.706;2023-08-06T10:16:57;19.20;99.90
11035;DHT22;5571;48.110;-1.706;2023-08-06T10:19:24;19.50;99.90
11035;DHT22;5571;48.110;-1.706;2023-08-06T10:22:13;19.60;99.90
11035;DHT22;5571;48.110;-1.706;2023-08-06T10:24:51;19.80;99.90
11035;DHT22;5571;48.110;-1.706;2023-08-06T10:27:33;20.10;99.90
11035;DHT22;5571;48.110;-1.706;2023-08-06T10:32:47;20.30;99.90
11035;DHT22;5571;48.110;-1.706;2023-08-06T10:38:09;20.40;99.90
11035;DHT22;5571;48.110;-1.706;2023-08-06T10:40:39;20.40;99.90
11035;DHT22;5571;48.110;-1.706;2023-08-06T10:43:05;20.20;99.90
11035;DHT22;5571;48.110;-1.706;2023-08-06T10:45:37;19.80;99.90
11035;DHT22;5571;48.110;-1.706;2023-08-06T10:48:04;19.60;99.90
11035;DHT22;5571;48.110;-1.706;2023-08-06T10:50:30;19.70;99.90
11035;DHT22;5571;48.110;-1.706;2023-08-06T10:52:57;20.00;99.90
11035;DHT22;5571;48.110;-1.706;2023-08-06T10:55:28;20.20;99.90
11035;DHT22;5571;48.110;-1.706;2023-08-06T10:57:55;20.30;99.90
11035;DHT22;5571;48.110;-1.706;2023-08-06T11:00:22;20.50;99.90
11035;DHT22;5571;48.110;-1.706;2023-08-06T11:02:52;20.40;99.90
11035;DHT22;5571;48.110;-1.706;2023-08-06T11:05:18;20.10;99.90
11035;DHT22;5571;48.110;-1.706;2023-08-06T11:07:44;19.90;99.90
11035;DHT22;5571;48.110;-1.706;2023-08-06T11:10:11;19.80;99.90
11035;DHT22;5571;48.110;-1.706;2023-08-06T11:12:38;19.70;99.90
11035;DHT22;5571;48.110;-1.706;2023-08-06T11:15:05;19.70;99.90
11035;DHT22;5571;48.110;-1.706;2023-08-06T11:17:32;19.80;99.90
11035;DHT22;5571;48.110;-1.706;2023-08-06T11:20:03;20.10;99.90
11035;DHT22;5571;48.110;-1.706;2023-08-06T11:22:29;20.30;99.90
11035;DHT22;5571;48.110;-1.706;2023-08-06T11:24:55;20.60;99.90
11035;DHT22;5571;48.110;-1.706;2023-08-06T11:27:20;20.80;99.90
11035;DHT22;5571;48.110;-1.706;2023-08-06T11:29:46;20.90;99.90
11035;DHT22;5571;48.110;-1.706;2023-08-06T11:32:12;20.80;99.90
11035;DHT22;5571;48.110;-1.706;2023-08-06T11:34:38;20.80;99.90
11035;DHT22;5571;48.110;-1.706;2023-08-06T11:37:05;20.70;99.90
11035;DHT22;5571;48.110;-1.706;2023-08-06T11:39:37;20.50;99.90
11035;DHT22;5571;48.110;-1.706;2023-08-06T11:42:05;20.30;99.90
11035;DHT22;5571;48.110;-1.706;2023-08-06T11:44:37;20.10;99.90
11035;DHT22;5571;48.110;-1.706;2023-08-06T11:47:03;20.00;99.90
11035;DHT22;5571;48.110;-1.706;2023-08-06T11:49:49;20.00;99.90
11035;DHT22;5571;48.110;-1.706;2023-08-06T11:52:17;20.00;99.90
11035;DHT22;5571;48.110;-1.706;2023-08-06T11:57:32;19.80;99.90
11035;DHT22;5571;48.110;-1.706;2023-08-06T12:00:09;19.90;99.90
11035;DHT22;5571;48.110;-1.706;2023-08-06T12:02:34;20.40;99.90
11035;DHT22;5571;48.110;-1.706;2023-08-06T12:05:10;21.00;99.90
11035;DHT22;5571;48.110;-1.706;2023-08-06T12:07:44;21.30;99.90
11035;DHT22;5571;48.110;-1.706;2023-08-06T12:10:11;21.30;99.90
11035;DHT22;5571;48.110;-1.706;2023-08-06T12:12:37;21.10;99.90
11035;DHT22;5571;48.110;-1.706;2023-08-06T12:15:04;20.90;99.90
11035;DHT22;5571;48.110;-1.706;2023-08-06T12:17:31;20.90;99.90
11035;DHT22;5571;48.110;-1.706;2023-08-06T12:19:57;21.10;99.90
11035;DHT22;5571;48.110;-1.706;2023-08-06T12:22:23;21.30;99.90
11035;DHT22;5571;48.110;-1.706;2023-08-06T12:24:48;21.20;99.90
11035;DHT22;5571;48.110;-1.706;2023-08-06T12:27:14;21.20;99.90
11035;DHT22;5571;48.110;-1.706;2023-08-06T12:29:44;21.40;99.90
11035;DHT22;5571;48.110;-1.706;2023-08-06T12:32:13;21.80;99.90
11035;DHT22;5571;48.110;-1.706;2023-08-06T12:34:40;21.60;99.90
11035;DHT22;5571;48.110;-1.706;2023-08-06T12:37:08;21.30;99.90
11035;DHT22;5571;48.110;-1.706;2023-08-06T12:39:34;21.20;99.90
11035;DHT22;5571;48.110;-1.706;2023-08-06T12:42:05;21.40;99.90
11035;DHT22;5571;48.110;-1.706;2023-08-06T12:44:31;21.80;99.90
11035;DHT22;5571;48.110;-1.706;2023-08-06T12:46:57;22.30;99.90
11035;DHT22;5571;48.110;-1.706;2023-08-06T12:49:24;22.60;99.90
11035;DHT22;5571;48.110;-1.706;2023-08-06T12:51:50;22.70;99.90
11035;DHT22;5571;48.110;-1.706;2023-08-06T12:54:25;22.20;99.90
11035;DHT22;5571;48.110;-1.706;2023-08-06T12:56:52;22.10;99.90
11035;DHT22;5571;48.110;-1.706;2023-08-06T12:59:18;22.00;99.90
11035;DHT22;5571;48.110;-1.706;2023-08-06T13:01:44;21.80;99.90
11035;DHT22;5571;48.110;-1.706;2023-08-06T13:04:10;21.50;99.90
11035;DHT22;5571;48.110;-1.706;2023-08-06T13:06:37;21.30;99.90
11035;DHT22;5571;48.110;-1.706;2023-08-06T13:09:04;21.30;99.90
11035;DHT22;5571;48.110;-1.706;2023-08-06T13:11:31;21.80;99.90
11035;DHT22;5571;48.110;-1.706;2023-08-06T13:14:10;22.20;99.90
11035;DHT22;5571;48.110;-1.706;2023-08-06T13:16:37;22.40;99.90
11035;DHT22;5571;48.110;-1.706;2023-08-06T13:19:03;22.80;99.90
11035;DHT22;5571;48.110;-1.706;2023-08-06T13:24:07;22.70;99.90
11035;DHT22;5571;48.110;-1.706;2023-08-06T13:26:33;22.00;99.90
11035;DHT22;5571;48.110;-1.706;2023-08-06T13:28:59;21.70;99.90
11035;DHT22;5571;48.110;-1.706;2023-08-06T13:31:26;21.40;99.90
11035;DHT22;5571;48.110;-1.706;2023-08-06T13:33:54;21.20;99.90
11035;DHT22;5571;48.110;-1.706;2023-08-06T13:36:21;21.50;99.90
11035;DHT22;5571;48.110;-1.706;2023-08-06T13:38:47;21.50;99.90
11035;DHT22;5571;48.110;-1.706;2023-08-06T13:41:12;21.60;99.90
11035;DHT22;5571;48.110;-1.706;2023-08-06T13:43:38;21.70;99.90
11035;DHT22;5571;48.110;-1.706;2023-08-06T13:46:04;21.90;99.90
11035;DHT22;5571;48.110;-1.706;2023-08-06T13:48:30;22.30;99.90
11035;DHT22;5571;48.110;-1.706;2023-08-06T13:50:56;22.80;99.90
11035;DHT22;5571;48.110;-1.706;2023-08-06T13:53:21;22.50;99.90
11035;DHT22;5571;48.110;-1.706;2023-08-06T13:55:47;22.00;99.90
11035;DHT22;5571;48.110;-1.706;2023-08-06T13:58:12;21.70;99.90
11035;DHT22;5571;48.110;-1.706;2023-08-06T14:00:38;21.40;99.90
11035;DHT22;5571;48.110;-1.706;2023-08-06T14:03:04;21.20;99.90
11035;DHT22;5571;48.110;-1.706;2023-08-06T14:05:29;21.30;99.90
11035;DHT22;5571;48.110;-1.706;2023-08-06T14:07:55;21.90;99.90
11035;DHT22;5571;48.110;-1.706;2023-08-06T14:10:20;22.00;99.90
11035;DHT22;5571;48.110;-1.706;2023-08-06T14:12:46;21.90;99.90
11035;DHT22;5571;48.110;-1.706;2023-08-06T14:15:12;21.80;99.90
11035;DHT22;5571;48.110;-1.706;2023-08-06T14:17:37;22.00;99.90
11035;DHT22;5571;48.110;-1.706;2023-08-06T14:20:04;22.10;99.90
11035;DHT22;5571;48.110;-1.706;2023-08-06T14:22:30;22.40;99.90
11035;DHT22;5571;48.110;-1.706;2023-08-06T14:24:59;22.60;99.90
11035;DHT22;5571;48.110;-1.706;2023-08-06T14:27:24;22.90;99.90
11035;DHT22;5571;48.110;-1.706;2023-08-06T14:29:50;23.10;99.90
11035;DHT22;5571;48.110;-1.706;2023-08-06T14:32:16;23.40;99.90
11035;DHT22;5571;48.110;-1.706;2023-08-06T14:34:43;23.50;99.90
11035;DHT22;5571;48.110;-1.706;2023-08-06T14:37:09;23.90;99.90
11035;DHT22;5571;48.110;-1.706;2023-08-06T14:39:35;24.20;99.90
11035;DHT22;5571;48.110;-1.706;2023-08-06T14:42:01;24.00;99.90
11035;DHT22;5571;48.110;-1.706;2023-08-06T14:44:27;23.80;99.90
11035;DHT22;5571;48.110;-1.706;2023-08-06T14:46:53;23.60;99.90
11035;DHT22;5571;48.110;-1.706;2023-08-06T14:49:18;23.10;99.90
11035;DHT22;5571;48.110;-1.706;2023-08-06T14:51:44;23.10;99.90
11035;DHT22;5571;48.110;-1.706;2023-08-06T14:54:10;23.10;99.90
11035;DHT22;5571;48.110;-1.706;2023-08-06T14:56:35;23.40;99.90
11035;DHT22;5571;48.110;-1.706;2023-08-06T14:59:01;23.50;99.90
11035;DHT22;5571;48.110;-1.706;2023-08-06T15:01:26;23.80;99.90
11035;DHT22;5571;48.110;-1.706;2023-08-06T15:03:52;24.10;99.90
11035;DHT22;5571;48.110;-1.706;2023-08-06T15:06:18;23.90;99.90
11035;DHT22;5571;48.110;-1.706;2023-08-06T15:08:43;23.80;99.90
11035;DHT22;5571;48.110;-1.706;2023-08-06T15:11:13;23.80;99.90
11035;DHT22;5571;48.110;-1.706;2023-08-06T15:13:38;23.90;99.90
11035;DHT22;5571;48.110;-1.706;2023-08-06T15:16:04;24.00;99.90
11035;DHT22;5571;48.110;-1.706;2023-08-06T15:18:29;24.00;99.90
11035;DHT22;5571;48.110;-1.706;2023-08-06T15:20:55;24.10;99.90
11035;DHT22;5571;48.110;-1.706;2023-08-06T15:23:21;23.60;99.90
11035;DHT22;5571;48.110;-1.706;2023-08-06T15:25:47;23.30;99.90
11035;DHT22;5571;48.110;-1.706;2023-08-06T15:28:13;23.20;99.90
11035;DHT22;5571;48.110;-1.706;2023-08-06T15:30:39;23.30;99.90
11035;DHT22;5571;48.110;-1.706;2023-08-06T15:33:06;23.50;99.90
11035;DHT22;5571;48.110;-1.706;2023-08-06T15:35:31;23.50;99.90
11035;DHT22;5571;48.110;-1.706;2023-08-06T15:37:57;23.20;99.90
11035;DHT22;5571;48.110;-1.706;2023-08-06T15:40:22;22.80;99.90
11035;DHT22;5571;48.110;-1.706;2023-08-06T15:42:49;22.60;99.90
11035;DHT22;5571;48.110;-1.706;2023-08-06T15:45:14;22.80;99.90
11035;DHT22;5571;48.110;-1.706;2023-08-06T15:47:40;22.80;99.90